Time;durP1;ratioP1;P1;durP2;ratioP2;P2;SDS_P1;SDS_P2;PMS_P1;PMS_P2;Temp;Humidity;BMP_temperature;BMP_pressure;BME280_temperature;BME280_humidity;BME280_pressure;Samples;Min_cycle;Max_cycle;Signal;HPM_P1;HPM_P2
2021/05/07 00:00:05;;;;;;;38.77;22.30;;;;;;;6.98;73.84;98837.50;232726;1179;116417;-69
2021/05/07 00:05:29;;;;;;;34.53;22.37;;;;;;;6.93;73.52;98829.44;232217;1179;116354;-72
2021/05/07 00:10:32;;;;;;;36.55;24.55;;;;;;;6.91;73.64;98815.63;233418;1177;116063;-69
2021/05/07 00:15:37;;;;;;;31.97;23.53;;;;;;;6.87;73.52;98816.31;232317;1177;115683;-68
2021/05/07 00:20:41;;;;;;;36.10;25.30;;;;;;;6.86;74.18;98810.21;232142;1177;116411;-68
2021/05/07 00:25:46;;;;;;;31.07;22.90;;;;;;;6.86;74.12;98804.91;233249;1174;115934;-69
2021/05/07 00:30:51;;;;;;;34.93;22.53;;;;;;;6.92;74.21;98797.88;233452;1177;115030;-70
2021/05/07 00:35:54;;;;;;;32.48;21.40;;;;;;;6.93;74.01;98792.35;234422;1177;114725;-70
2021/05/07 00:40:57;;;;;;;28.18;19.33;;;;;;;6.97;74.69;98784.74;234568;1177;115721;-68
2021/05/07 00:46:00;;;;;;;27.70;21.60;;;;;;;7.03;74.21;98778.52;234697;1177;115066;-72
2021/05/07 00:51:04;;;;;;;29.95;20.90;;;;;;;7.01;74.42;98770.80;233816;1177;115181;-72
2021/05/07 00:56:09;;;;;;;29.85;20.43;;;;;;;6.92;73.95;98772.20;233500;1177;116928;-68
2021/05/07 01:01:12;;;;;;;17.13;15.30;;;;;;;6.85;74.77;98768.86;233362;1177;115966;-69
2021/05/07 01:06:16;;;;;;;25.60;19.40;;;;;;;6.79;74.86;98761.84;232174;1177;115752;-70
2021/05/07 01:11:20;;;;;;;35.85;24.10;;;;;;;6.84;75.33;98761.15;232744;1177;115298;-67
2021/05/07 01:16:23;;;;;;;26.78;18.78;;;;;;;6.83;74.26;98757.70;233555;1174;115002;-69
2021/05/07 01:21:26;;;;;;;27.30;18.90;;;;;;;6.84;75.07;98759.31;232394;1177;115950;-70
2021/05/07 01:26:29;;;;;;;18.33;15.50;;;;;;;6.88;75.44;98757.80;232937;1177;115336;-70
2021/05/07 01:31:31;;;;;;;27.93;19.63;;;;;;;6.90;75.08;98747.78;232460;1177;115849;-69
2021/05/07 01:36:33;;;;;;;26.20;16.80;;;;;;;6.90;75.19;98749.63;232384;1178;115239;-70
2021/05/07 01:41:36;;;;;;;25.77;17.67;;;;;;;6.86;75.78;98740.53;232677;1177;115687;-69
2021/05/07 01:46:39;;;;;;;27.58;18.23;;;;;;;6.86;76.07;98725.44;232670;1177;115838;-68
2021/05/07 01:51:44;;;;;;;22.83;17.87;;;;;;;6.93;75.69;98710.22;232622;1177;116340;-68
2021/05/07 01:56:47;;;;;;;29.50;20.07;;;;;;;7.00;76.33;98702.14;232028;1177;115611;-69
2021/05/07 02:01:50;;;;;;;23.63;16.50;;;;;;;7.03;76.23;98699.80;232103;1177;119149;-67
2021/05/07 02:06:54;;;;;;;22.95;18.20;;;;;;;7.08;76.47;98683.99;232642;1177;115668;-68
2021/05/07 02:11:56;;;;;;;23.20;17.30;;;;;;;7.13;76.26;98679.83;232073;1170;115394;-69
2021/05/07 02:17:01;;;;;;;26.07;17.97;;;;;;;7.08;75.96;98675.23;231943;1177;116345;-68
2021/05/07 02:22:05;;;;;;;21.17;16.40;;;;;;;7.08;76.03;98678.69;232958;1177;115018;-68
2021/05/07 02:27:09;;;;;;;19.53;15.30;;;;;;;7.06;75.51;98672.83;234659;1177;115435;-69
2021/05/07 02:32:12;;;;;;;20.25;16.55;;;;;;;7.03;76.14;98672.52;233110;1177;116048;-69
2021/05/07 02:37:16;;;;;;;22.30;15.40;;;;;;;6.99;76.02;98661.59;233681;1177;116429;-69
2021/05/07 02:42:20;;;;;;;22.13;14.20;;;;;;;6.93;75.62;98664.38;233532;1177;116000;-68
2021/05/07 02:47:25;;;;;;;22.65;15.18;;;;;;;6.89;75.60;98661.39;234529;1177;115470;-66
2021/05/07 02:52:29;;;;;;;18.23;13.63;;;;;;;6.86;75.54;98667.16;234152;1177;115240;-66
2021/05/07 02:57:32;;;;;;;16.30;13.70;;;;;;;6.95;76.37;98671.05;233914;1177;118088;-66
2021/05/07 03:02:35;;;;;;;14.90;11.40;;;;;;;7.00;76.42;98668.50;233581;1173;115209;-67
2021/05/07 03:07:38;;;;;;;17.53;13.95;;;;;;;6.99;76.37;98671.39;231921;1177;115826;-69
2021/05/07 03:12:41;;;;;;;16.30;14.30;;;;;;;6.96;76.14;98670.02;231967;1177;115307;-67
2021/05/07 03:17:48;;;;;;;18.00;14.20;;;;;;;7.06;76.38;98677.32;232507;1177;115480;-75
2021/05/07 03:22:53;;;;;;;22.23;14.00;;;;;;;6.99;76.49;98685.44;232401;1177;115543;-71
2021/05/07 03:27:56;;;;;;;13.50;11.58;;;;;;;6.92;76.36;98691.91;232016;1177;115108;-71
2021/05/07 03:33:03;;;;;;;13.90;11.67;;;;;;;6.98;76.08;98690.97;232674;1177;116396;-70
2021/05/07 03:38:08;;;;;;;19.40;11.65;;;;;;;7.03;76.27;98689.20;232171;1177;115401;-69
2021/05/07 03:43:11;;;;;;;10.68;9.13;;;;;;;6.94;76.12;98684.53;232580;1177;115307;-69
2021/05/07 03:48:21;;;;;;;15.47;11.60;;;;;;;6.88;76.33;98685.47;232050;1177;115587;-68
2021/05/07 03:53:25;;;;;;;16.43;12.57;;;;;;;6.94;76.70;98674.73;232299;1178;116231;-68
2021/05/07 03:58:28;;;;;;;18.33;13.77;;;;;;;7.06;76.60;98670.17;232128;1177;117574;-67
2021/05/07 04:03:31;;;;;;;17.25;12.05;;;;;;;7.13;77.03;98659.44;232009;1177;115676;-71
2021/05/07 04:08:39;;;;;;;15.75;13.00;;;;;;;7.14;76.45;98657.59;232087;1180;117273;-71
2021/05/07 04:13:45;;;;;;;19.00;15.35;;;;;;;7.14;76.43;98674.30;233433;1179;116975;-71
2021/05/07 04:18:53;;;;;;;16.95;14.78;;;;;;;7.16;76.55;98672.21;233785;1179;116644;-69
2021/05/07 04:23:57;;;;;;;20.52;15.80;;;;;;;7.15;77.05;98661.84;232912;1177;116719;-71
2021/05/07 04:29:00;;;;;;;26.45;19.80;;;;;;;7.13;76.93;98662.09;233023;1177;117029;-71
2021/05/07 04:34:06;;;;;;;28.55;19.85;;;;;;;7.16;76.77;98658.16;231942;1177;115777;-71
2021/05/07 04:39:10;;;;;;;25.57;18.03;;;;;;;7.17;76.61;98659.77;234485;1177;115533;-70
2021/05/07 04:44:14;;;;;;;18.35;13.75;;;;;;;7.19;77.26;98655.03;234568;1177;115846;-69
2021/05/07 04:49:17;;;;;;;19.70;13.50;;;;;;;7.23;76.72;98661.47;234566;1177;114985;-69
2021/05/07 04:54:21;;;;;;;15.60;12.05;;;;;;;7.34;76.74;98661.38;234279;1177;116887;-70
2021/05/07 04:59:28;;;;;;;13.75;11.30;;;;;;;7.40;76.68;98662.27;233628;1177;115584;-68
2021/05/07 05:04:33;;;;;;;13.40;9.37;;;;;;;7.43;77.26;98667.91;233344;1177;115727;-68
2021/05/07 05:09:37;;;;;;;12.80;10.90;;;;;;;7.46;76.87;98671.13;233173;1177;114656;-70
2021/05/07 05:14:40;;;;;;;12.63;9.93;;;;;;;7.46;77.40;98681.73;232486;1177;115675;-70
2021/05/07 05:19:47;;;;;;;11.00;8.80;;;;;;;7.50;76.79;98688.16;231922;1177;115608;-69
2021/05/07 05:24:50;;;;;;;8.65;6.65;;;;;;;7.55;76.89;98681.09;232234;1177;115332;-69
2021/05/07 05:29:53;;;;;;;9.70;7.15;;;;;;;7.60;76.42;98675.08;232878;1177;115634;-69
2021/05/07 05:34:56;;;;;;;6.33;5.63;;;;;;;7.64;76.19;98674.33;232890;1177;115972;-70
2021/05/07 05:40:00;;;;;;;7.07;6.33;;;;;;;7.67;76.35;98670.39;232000;1177;115100;-71
2021/05/07 05:45:07;;;;;;;8.40;7.00;;;;;;;7.71;76.63;98679.48;232404;1173;115095;-70
2021/05/07 05:50:11;;;;;;;14.90;6.80;;;;;;;7.73;76.77;98672.08;233599;1177;115169;-67
2021/05/07 05:55:16;;;;;;;7.60;6.05;;;;;;;7.77;77.26;98676.67;233103;1177;115537;-70
2021/05/07 06:00:21;;;;;;;9.30;6.40;;;;;;;7.78;77.20;98678.28;231879;1177;115787;-70
2021/05/07 06:05:26;;;;;;;8.00;7.10;;;;;;;7.72;76.36;98687.20;232422;1177;116446;-70
2021/05/07 06:10:29;;;;;;;10.45;6.55;;;;;;;7.67;76.42;98681.81;232229;1178;115627;-69
2021/05/07 06:15:32;;;;;;;18.08;7.38;;;;;;;7.62;76.57;98684.41;232661;1178;116572;-69
2021/05/07 06:20:34;;;;;;;9.78;6.35;;;;;;;7.62;76.30;98681.75;232085;1177;116024;-70
2021/05/07 06:25:38;;;;;;;10.03;7.87;;;;;;;7.64;76.71;98684.94;232034;1179;116850;-70
2021/05/07 06:30:40;;;;;;;7.88;5.60;;;;;;;7.61;77.20;98689.95;232281;1179;116523;-70
2021/05/07 06:35:42;;;;;;;7.00;6.30;;;;;;;7.59;77.10;98687.53;232423;1178;115878;-70
2021/05/07 06:40:45;;;;;;;9.10;6.70;;;;;;;7.69;76.58;98692.17;233654;1177;116297;-69
2021/05/07 06:45:48;;;;;;;7.50;6.60;;;;;;;7.77;77.18;98689.93;232702;1177;115316;-69
2021/05/07 06:50:50;;;;;;;6.30;5.55;;;;;;;7.87;76.52;98702.56;234444;1177;114588;-68
2021/05/07 06:55:53;;;;;;;11.07;7.40;;;;;;;7.94;76.65;98697.09;234670;1177;114415;-68
2021/05/07 07:01:13;;;;;;;8.40;6.00;;;;;;;7.98;76.24;98703.50;233370;1177;116031;-68
2021/05/07 07:06:16;;;;;;;9.05;6.25;;;;;;;7.99;75.60;98703.25;233451;1177;115350;-69
2021/05/07 07:11:19;;;;;;;7.43;5.97;;;;;;;8.01;76.61;98698.52;232627;1177;115832;-68
2021/05/07 07:16:22;;;;;;;7.60;6.05;;;;;;;7.97;76.08;98701.89;232016;1177;117655;-68
2021/05/07 07:21:24;;;;;;;6.28;5.68;;;;;;;7.92;76.25;98701.84;232044;1177;121077;-68
2021/05/07 07:26:28;;;;;;;8.93;5.70;;;;;;;7.94;76.12;98702.41;232889;1177;115425;-70
2021/05/07 07:31:30;;;;;;;6.35;5.75;;;;;;;8.22;76.01;98709.44;232607;1171;114645;-69
2021/05/07 07:36:33;;;;;;;6.13;5.53;;;;;;;8.20;76.04;98714.99;232118;1179;115243;-69
2021/05/07 07:41:36;;;;;;;6.17;5.37;;;;;;;8.10;75.37;98720.95;232350;1179;115082;-68
2021/05/07 07:46:40;;;;;;;7.83;6.90;;;;;;;7.96;75.40;98732.13;232213;1177;115184;-68
2021/05/07 07:51:43;;;;;;;4.08;3.78;;;;;;;7.89;75.84;98739.47;232008;1177;115684;-68
2021/05/07 07:56:46;;;;;;;5.00;4.60;;;;;;;7.84;75.89;98744.69;231919;1174;115327;-69
2021/05/07 08:01:48;;;;;;;4.90;4.55;;;;;;;7.73;75.23;98747.16;232354;1177;115294;-69
2021/05/07 08:06:51;;;;;;;3.90;3.60;;;;;;;7.74;76.17;98743.47;232362;1178;115008;-71
2021/05/07 08:11:54;;;;;;;6.93;5.27;;;;;;;7.71;75.29;98749.25;231967;1177;115328;-69
2021/05/07 08:17:04;;;;;;;3.70;3.40;;;;;;;7.87;75.92;98752.17;232979;1177;115299;-67
2021/05/07 08:22:07;;;;;;;5.05;3.05;;;;;;;7.97;75.77;98754.97;233212;1177;115408;-71
2021/05/07 08:27:10;;;;;;;4.07;3.43;;;;;;;8.03;76.10;98761.97;232071;1177;115883;-72
2021/05/07 08:32:15;;;;;;;4.73;4.07;;;;;;;8.17;75.66;98767.77;233692;1174;115024;-71
2021/05/07 08:37:18;;;;;;;3.93;3.47;;;;;;;8.34;75.71;98779.19;233873;1177;115325;-68
2021/05/07 08:42:22;;;;;;;3.20;2.90;;;;;;;8.50;75.53;98785.54;234319;1177;116306;-66
2021/05/07 08:47:24;;;;;;;2.43;2.17;;;;;;;8.57;74.01;98776.33;234174;1177;115499;-66
2021/05/07 08:52:29;;;;;;;2.20;2.00;;;;;;;8.70;74.22;98785.81;234579;1177;116287;-66
2021/05/07 08:57:32;;;;;;;1.97;1.67;;;;;;;8.72;73.25;98791.69;234321;1177;116355;-65
2021/05/07 09:02:35;;;;;;;1.87;1.77;;;;;;;8.87;73.89;98794.53;234464;1177;116046;-66
2021/05/07 09:07:39;;;;;;;1.88;1.78;;;;;;;9.16;73.40;98797.03;233840;1177;115614;-65
2021/05/07 09:12:42;;;;;;;2.80;2.50;;;;;;;9.23;72.99;98797.63;233109;1177;115070;-69
2021/05/07 09:17:44;;;;;;;2.00;1.90;;;;;;;9.24;73.03;98804.55;233423;1177;117109;-67
2021/05/07 09:22:48;;;;;;;4.75;1.90;;;;;;;9.29;72.68;98812.59;232947;1179;116332;-65
2021/05/07 09:27:50;;;;;;;1.70;1.60;;;;;;;9.46;72.23;98829.30;232893;1177;117001;-69
2021/05/07 09:32:54;;;;;;;1.95;1.85;;;;;;;9.50;72.64;98830.38;232027;1177;115884;-66
2021/05/07 09:38:02;;;;;;;2.83;2.50;;;;;;;9.37;72.20;98836.90;232730;1177;115689;-65
2021/05/07 09:43:20;;;;;;;3.93;2.23;;;;;;;9.24;71.96;98836.45;232747;1177;116786;-65
2021/05/07 09:48:27;;;;;;;3.07;2.33;;;;;;;9.06;71.65;98841.05;232397;1177;115784;-69
2021/05/07 09:53:37;;;;;;;2.63;1.88;;;;;;;8.97;71.92;98839.05;232146;1177;116102;-71
2021/05/07 09:58:40;;;;;;;6.15;3.05;;;;;;;9.00;72.52;98844.68;232335;1170;115072;-69
2021/05/07 10:03:43;;;;;;;2.53;2.40;;;;;;;9.13;71.71;98848.04;231879;1177;115545;-70
2021/05/07 10:08:47;;;;;;;3.07;2.60;;;;;;;9.24;71.72;98855.88;232363;1177;115180;-70
2021/05/07 10:13:54;;;;;;;2.27;2.17;;;;;;;9.21;71.61;98855.56;232176;1179;115378;-70
2021/05/07 10:19:18;;;;;;;3.58;3.25;;;;;;;9.05;71.92;98859.89;232989;1177;115002;-68
2021/05/07 10:24:21;;;;;;;4.23;3.63;;;;;;;8.98;71.50;98859.27;233136;1177;116247;-69
2021/05/07 10:29:28;;;;;;;3.75;3.05;;;;;;;8.95;71.40;98863.22;232493;1177;115379;-70
2021/05/07 10:34:45;;;;;;;2.37;2.17;;;;;;;8.83;71.83;98875.02;232763;1173;115617;-67
2021/05/07 10:39:56;;;;;;;2.98;2.75;;;;;;;8.70;71.54;98878.80;233757;1177;114732;-69
2021/05/07 10:44:59;;;;;;;4.20;3.80;;;;;;;8.61;71.75;98881.05;233132;1177;115258;-70
2021/05/07 10:50:22;;;;;;;3.43;3.13;;;;;;;8.63;72.47;98889.59;234392;1177;114902;-68
2021/05/07 10:55:33;;;;;;;4.70;4.30;;;;;;;8.57;71.88;98897.72;234213;1177;115041;-70
2021/05/07 11:00:41;;;;;;;4.05;3.30;;;;;;;8.54;72.24;98907.00;234502;1177;115918;-67
2021/05/07 11:05:51;;;;;;;4.70;4.40;;;;;;;8.58;71.72;98899.33;234459;1177;115211;-67
2021/05/07 11:10:54;;;;;;;4.33;4.00;;;;;;;8.66;71.93;98898.93;234174;1174;115529;-67
2021/05/07 11:16:01;;;;;;;7.67;4.97;;;;;;;8.81;72.93;98909.00;233336;1177;116245;-69
2021/05/07 11:21:11;;;;;;;4.80;2.93;;;;;;;8.99;72.45;98908.72;233619;1177;115026;-68
2021/05/07 11:26:37;;;;;;;5.58;3.80;;;;;;;9.23;72.10;98904.79;232897;1177;115470;-67
2021/05/07 11:31:40;;;;;;;3.45;3.15;;;;;;;9.53;71.61;98915.02;232932;1177;114901;-68
2021/05/07 11:36:43;;;;;;;3.40;3.10;;;;;;;9.86;70.53;98910.59;232620;1177;115492;-67
2021/05/07 11:41:46;;;;;;;2.60;2.48;;;;;;;10.11;70.12;98921.50;232516;1177;115100;-70
2021/05/07 11:46:56;;;;;;;3.80;2.80;;;;;;;10.21;70.24;98916.31;232594;1177;116287;-70
2021/05/07 11:52:02;;;;;;;4.03;3.63;;;;;;;10.38;69.40;98914.36;232743;1177;115562;-69
2021/05/07 11:57:06;;;;;;;5.33;2.40;;;;;;;10.61;69.36;98904.41;232364;1177;115636;-70
2021/05/07 12:02:09;;;;;;;3.95;3.05;;;;;;;10.74;69.78;98904.77;232818;1177;116216;-71
2021/05/07 12:07:26;;;;;;;5.03;2.73;;;;;;;10.67;69.74;98908.73;232130;1177;115556;-69
2021/05/07 12:12:41;;;;;;;3.60;3.30;;;;;;;10.73;69.61;98913.02;232463;1177;115125;-70
2021/05/07 12:17:47;;;;;;;2.30;2.20;;;;;;;10.68;69.30;98913.00;232551;1177;115917;-71
2021/05/07 12:22:53;;;;;;;3.70;3.40;;;;;;;10.74;69.01;98910.09;232590;1177;115703;-71
2021/05/07 12:27:56;;;;;;;3.83;3.47;;;;;;;10.81;69.08;98909.88;232917;1177;115120;-70
2021/05/07 12:33:01;;;;;;;2.50;2.15;;;;;;;10.95;69.24;98910.25;233210;1177;115231;-69
2021/05/07 12:38:39;;;;;;;2.33;2.13;;;;;;;11.32;68.83;98915.51;233552;1178;115000;-67
2021/05/07 12:43:53;;;;;;;2.40;2.20;;;;;;;11.58;68.24;98914.59;234493;1170;115721;-67
2021/05/07 12:48:59;;;;;;;3.53;2.77;;;;;;;11.61;66.73;98922.08;234115;1177;115310;-67
2021/05/07 12:54:02;;;;;;;4.65;3.75;;;;;;;11.68;66.97;98917.27;233224;1179;116122;-67
2021/05/07 12:59:05;;;;;;;2.83;1.75;;;;;;;11.67;66.72;98918.34;233580;1180;116611;-65
2021/05/07 13:04:09;;;;;;;1.83;1.70;;;;;;;11.62;65.63;98914.84;234620;1177;116356;-65
2021/05/07 13:09:14;;;;;;;1.20;1.20;;;;;;;11.51;66.01;98915.88;234614;1178;117138;-68
2021/05/07 13:14:18;;;;;;;3.83;3.03;;;;;;;11.45;65.62;98931.06;233644;1177;116755;-68
2021/05/07 13:19:24;;;;;;;3.10;2.03;;;;;;;11.62;66.07;98928.19;232548;1170;115992;-67
2021/05/07 13:24:29;;;;;;;1.78;1.68;;;;;;;11.84;66.06;98934.19;233292;1177;117121;-68
2021/05/07 13:29:34;;;;;;;1.77;1.67;;;;;;;11.95;65.53;98940.34;233140;1177;116290;-68
2021/05/07 13:34:39;;;;;;;1.73;1.60;;;;;;;11.94;65.09;98946.75;233191;1177;115470;-68
2021/05/07 13:39:44;;;;;;;3.50;1.70;;;;;;;12.03;64.67;98945.19;233664;1177;115007;-68
2021/05/07 13:44:49;;;;;;;2.75;2.55;;;;;;;11.97;64.36;98957.72;233027;1177;116061;-69
2021/05/07 13:49:54;;;;;;;2.07;1.87;;;;;;;11.85;64.18;98959.03;232576;1177;120526;-71
2021/05/07 13:54:58;;;;;;;3.80;1.90;;;;;;;11.69;64.15;98953.59;232068;1177;116275;-70
2021/05/07 14:00:05;;;;;;;2.63;1.57;;;;;;;11.67;64.34;98961.05;232013;1173;116004;-71
2021/05/07 14:05:11;;;;;;;2.28;2.08;;;;;;;11.70;64.14;98965.06;232806;1177;115150;-70
2021/05/07 14:10:15;;;;;;;2.70;1.70;;;;;;;11.69;64.03;98979.48;232587;1170;115371;-70
2021/05/07 14:15:18;;;;;;;1.90;1.80;;;;;;;11.54;64.02;98976.75;232166;1177;114987;-70
2021/05/07 14:20:22;;;;;;;2.47;2.00;;;;;;;11.62;64.30;98981.58;232751;1177;116265;-69
2021/05/07 14:25:26;;;;;;;4.93;2.40;;;;;;;11.57;63.44;98977.04;233222;1177;116255;-69
2021/05/07 14:30:29;;;;;;;2.80;2.60;;;;;;;11.31;63.67;98980.63;232005;1177;115668;-69
2021/05/07 14:35:33;;;;;;;3.00;2.80;;;;;;;11.04;63.55;98994.83;232874;1177;115373;-69
2021/05/07 14:40:36;;;;;;;4.85;2.58;;;;;;;10.76;63.95;98997.81;233329;1177;115828;-69
2021/05/07 14:45:39;;;;;;;5.85;2.40;;;;;;;10.52;64.02;98997.33;232720;1177;115118;-69
2021/05/07 14:50:44;;;;;;;3.20;2.83;;;;;;;10.28;64.50;98996.84;232049;1177;114619;-68
2021/05/07 14:55:49;;;;;;;6.50;2.55;;;;;;;10.08;65.70;99007.25;232605;1177;115925;-68
2021/05/07 15:00:52;;;;;;;2.67;2.50;;;;;;;9.92;64.95;99018.75;234511;1177;115865;-67
2021/05/07 15:05:58;;;;;;;4.27;3.27;;;;;;;9.84;65.83;99022.64;234466;1177;114593;-66
2021/05/07 15:11:03;;;;;;;7.60;3.98;;;;;;;9.77;65.88;99033.50;234490;1177;115494;-66
2021/05/07 15:16:06;;;;;;;7.10;4.03;;;;;;;9.69;66.98;99041.89;234200;1179;114945;-68
2021/05/07 15:21:11;;;;;;;5.10;3.75;;;;;;;9.61;66.69;99041.50;233840;1179;114781;-68
2021/05/07 15:26:14;;;;;;;4.00;3.45;;;;;;;9.44;66.17;99044.20;232586;1177;137372;-68
2021/05/07 15:31:17;;;;;;;4.53;3.57;;;;;;;9.34;67.17;99044.05;233277;1177;115819;-69
2021/05/07 15:36:21;;;;;;;6.00;4.85;;;;;;;9.33;66.87;99071.69;233043;1177;116587;-68
2021/05/07 15:41:26;;;;;;;3.73;2.93;;;;;;;9.15;66.66;99087.90;232760;1177;115043;-68
2021/05/07 15:46:30;;;;;;;3.40;3.10;;;;;;;8.85;67.87;99094.31;232118;1177;115786;-68
2021/05/07 15:51:35;;;;;;;3.85;3.65;;;;;;;8.50;67.07;99102.42;232947;1177;115418;-71
2021/05/07 15:56:39;;;;;;;7.45;4.00;;;;;;;8.62;69.03;99099.70;232481;1177;115859;-69
2021/05/07 16:01:43;;;;;;;3.83;3.53;;;;;;;9.01;68.19;99108.66;232109;1177;114700;-69
2021/05/07 16:06:47;;;;;;;2.25;2.05;;;;;;;9.05;68.65;99115.92;232220;1174;114993;-69
2021/05/07 16:11:54;;;;;;;3.43;3.13;;;;;;;8.95;67.77;99121.05;232986;1177;115061;-73
2021/05/07 16:17:00;;;;;;;3.38;2.75;;;;;;;8.77;68.62;99114.09;232644;1177;115518;-67
2021/05/07 16:22:04;;;;;;;4.05;3.10;;;;;;;8.58;68.57;99123.28;232369;1177;115781;-67
2021/05/07 16:27:09;;;;;;;4.25;3.95;;;;;;;8.53;68.66;99139.14;232301;1177;116143;-66
2021/05/07 16:32:16;;;;;;;4.00;3.43;;;;;;;8.66;69.35;99133.54;232804;1177;115643;-67
2021/05/07 16:37:24;;;;;;;2.20;1.95;;;;;;;8.52;68.68;99152.66;233107;1180;116793;-67
2021/05/07 16:42:28;;;;;;;5.48;3.28;;;;;;;8.25;69.38;99147.84;232863;1177;115684;-67
2021/05/07 16:47:32;;;;;;;4.40;3.38;;;;;;;8.15;69.81;99142.31;232835;1177;115550;-68
2021/05/07 16:52:35;;;;;;;4.27;3.80;;;;;;;8.04;69.69;99146.58;233422;1177;121854;-67
2021/05/07 16:57:39;;;;;;;5.00;3.75;;;;;;;8.03;69.44;99152.13;233897;1177;115209;-70
2021/05/07 17:02:43;;;;;;;2.90;2.70;;;;;;;7.99;69.72;99162.39;233664;1177;115092;-67
2021/05/07 17:07:47;;;;;;;11.30;4.63;;;;;;;7.94;70.52;99158.84;232939;1178;115512;-65
2021/05/07 17:12:50;;;;;;;6.05;2.95;;;;;;;7.86;70.13;99183.88;234470;1177;115961;-68
2021/05/07 17:17:54;;;;;;;5.48;4.60;;;;;;;7.86;69.92;99185.72;233850;1177;115282;-70
2021/05/07 17:22:58;;;;;;;6.60;3.73;;;;;;;7.81;70.24;99189.05;233959;1171;115092;-69
2021/05/07 17:28:01;;;;;;;5.33;3.60;;;;;;;7.73;70.48;99202.66;232634;1177;115483;-67
2021/05/07 17:33:05;;;;;;;5.55;4.75;;;;;;;7.59;70.16;99196.77;232071;1177;115552;-66
2021/05/07 17:38:09;;;;;;;5.40;4.70;;;;;;;7.47;70.59;99198.58;232787;1177;115227;-68
2021/05/07 17:43:13;;;;;;;5.55;4.08;;;;;;;7.44;71.14;99196.38;233132;1177;114915;-67
2021/05/07 17:48:17;;;;;;;5.60;4.40;;;;;;;7.32;70.87;99216.77;232292;1177;115853;-67
2021/05/07 17:53:21;;;;;;;4.67;4.13;;;;;;;7.24;71.16;99217.08;233408;1177;115388;-67
2021/05/07 17:58:24;;;;;;;4.90;4.47;;;;;;;7.18;71.68;99232.04;232712;1177;116225;-66
2021/05/07 18:03:27;;;;;;;4.20;3.90;;;;;;;7.18;71.67;99241.83;232775;1177;116047;-66
2021/05/07 18:08:30;;;;;;;4.75;4.35;;;;;;;7.15;72.30;99240.44;232378;1177;115603;-67
2021/05/07 18:13:33;;;;;;;4.73;4.35;;;;;;;7.06;72.44;99245.23;232613;1177;115264;-67
2021/05/07 18:18:39;;;;;;;6.57;5.17;;;;;;;6.99;72.76;99249.02;232501;1177;115802;-66
2021/05/07 18:23:43;;;;;;;5.40;4.90;;;;;;;6.96;72.46;99255.58;232589;1177;115237;-70
2021/05/07 18:28:47;;;;;;;6.35;5.45;;;;;;;7.02;73.30;99267.94;232938;1177;118106;-68
2021/05/07 18:33:50;;;;;;;5.88;4.58;;;;;;;6.97;72.58;99274.93;232712;1177;115919;-69
2021/05/07 18:39:13;;;;;;;5.97;5.00;;;;;;;6.80;72.63;99287.95;233199;1177;115231;-69
2021/05/07 18:44:17;;;;;;;4.35;3.95;;;;;;;6.73;73.16;99295.16;233090;1177;114745;-68
2021/05/07 18:49:22;;;;;;;5.30;4.80;;;;;;;6.72;72.95;99296.22;233309;1177;115123;-70
2021/05/07 18:54:27;;;;;;;12.60;7.43;;;;;;;6.59;73.52;99306.93;233443;1177;116530;-68
2021/05/07 18:59:30;;;;;;;13.00;8.90;;;;;;;6.49;73.13;99317.20;233791;1177;115231;-68
2021/05/07 19:04:34;;;;;;;6.73;5.20;;;;;;;6.46;73.50;99336.98;232484;1170;115534;-68
2021/05/07 19:09:38;;;;;;;3.95;3.05;;;;;;;6.36;73.79;99344.63;234520;1177;114859;-69
2021/05/07 19:14:42;;;;;;;5.23;3.33;;;;;;;6.19;73.68;99359.41;234519;1177;116313;-68
2021/05/07 19:19:45;;;;;;;2.83;2.30;;;;;;;6.09;73.44;99359.91;234446;1177;114785;-67
2021/05/07 19:24:49;;;;;;;4.50;3.70;;;;;;;6.00;74.06;99369.13;234292;1177;115406;-68
2021/05/07 19:29:54;;;;;;;2.95;2.15;;;;;;;6.00;74.08;99369.94;234566;1177;114752;-68
2021/05/07 19:34:57;;;;;;;8.20;4.73;;;;;;;5.91;74.12;99380.98;233836;1177;114924;-66
2021/05/07 19:40:00;;;;;;;6.43;5.20;;;;;;;5.94;74.38;99389.30;233704;1177;115493;-66
2021/05/07 19:45:04;;;;;;;6.05;5.35;;;;;;;5.87;74.59;99393.78;232930;1178;115718;-67
2021/05/07 19:50:08;;;;;;;7.80;5.47;;;;;;;5.79;74.74;99407.28;233490;1177;117149;-66
2021/05/07 19:55:18;;;;;;;3.70;3.40;;;;;;;5.56;74.61;99428.92;232055;1177;117382;-66
2021/05/07 20:00:22;;;;;;;4.58;3.40;;;;;;;5.36;74.46;99444.05;232635;1177;115021;-68
2021/05/07 20:05:25;;;;;;;4.20;3.80;;;;;;;5.25;74.91;99457.89;233251;1177;114953;-67
2021/05/07 20:10:30;;;;;;;1.90;1.80;;;;;;;5.19;74.46;99458.75;232771;1177;118576;-67
2021/05/07 20:15:35;;;;;;;2.73;2.53;;;;;;;5.01;74.65;99481.31;232833;1177;115425;-67
2021/05/07 20:20:40;;;;;;;2.45;2.20;;;;;;;4.73;74.22;99500.02;232649;1177;115964;-68
2021/05/07 20:25:45;;;;;;;2.45;1.80;;;;;;;4.47;74.20;99509.73;233628;1177;117373;-68
2021/05/07 20:30:49;;;;;;;1.93;1.55;;;;;;;4.25;74.53;99525.73;232399;1177;115198;-67
2021/05/07 20:35:55;;;;;;;5.17;2.27;;;;;;;4.11;74.60;99524.06;232899;1177;115037;-67
2021/05/07 20:41:00;;;;;;;7.83;3.57;;;;;;;4.04;75.46;99523.21;232781;1170;114822;-66
2021/05/07 20:46:04;;;;;;;4.88;3.83;;;;;;;4.06;75.46;99522.00;232545;1177;114984;-68
2021/05/07 20:51:08;;;;;;;5.93;3.90;;;;;;;4.08;74.96;99521.81;232675;1177;117615;-68
2021/05/07 20:56:12;;;;;;;9.28;6.13;;;;;;;4.01;75.89;99521.78;233163;1179;116062;-67
2021/05/07 21:01:15;;;;;;;9.35;5.45;;;;;;;4.05;75.61;99535.39;233238;1177;117360;-67
2021/05/07 21:06:19;;;;;;;9.25;5.40;;;;;;;4.09;75.84;99541.91;233292;1177;115668;-67
2021/05/07 21:11:22;;;;;;;4.10;3.73;;;;;;;4.11;76.32;99544.34;233284;1177;116798;-67
2021/05/07 21:16:25;;;;;;;3.38;2.65;;;;;;;4.05;76.22;99552.03;234002;1177;114894;-68
2021/05/07 21:21:29;;;;;;;6.13;5.23;;;;;;;4.09;75.89;99562.19;234409;1177;114292;-69
2021/05/07 21:26:34;;;;;;;3.80;2.80;;;;;;;4.08;76.27;99555.28;234472;1177;115319;-66
2021/05/07 21:31:37;;;;;;;3.53;2.63;;;;;;;4.05;76.52;99567.86;234468;1177;116204;-67
2021/05/07 21:36:40;;;;;;;5.05;3.80;;;;;;;4.06;76.63;99577.40;234049;1177;116336;-69
2021/05/07 21:41:43;;;;;;;10.08;6.68;;;;;;;4.10;76.56;99585.73;233656;1179;115087;-70
2021/05/07 21:46:47;;;;;;;11.60;7.07;;;;;;;4.16;76.64;99584.14;233798;1177;115964;-65
2021/05/07 21:51:50;;;;;;;7.77;6.97;;;;;;;4.19;76.82;99589.84;233144;1177;115647;-67
2021/05/07 21:56:54;;;;;;;9.27;7.73;;;;;;;4.17;76.97;99591.86;232849;1177;115408;-68
2021/05/07 22:01:58;;;;;;;10.15;6.73;;;;;;;4.20;76.52;99615.22;233337;1177;115330;-65
2021/05/07 22:07:02;;;;;;;8.57;7.30;;;;;;;4.25;76.51;99609.35;232966;1177;117144;-67
2021/05/07 22:12:06;;;;;;;8.20;7.40;;;;;;;4.27;77.14;99612.61;232180;1177;116311;-67
2021/05/07 22:17:10;;;;;;;6.80;6.10;;;;;;;4.26;77.67;99617.08;232852;1177;115674;-66
2021/05/07 22:22:13;;;;;;;14.45;10.55;;;;;;;4.24;77.67;99624.38;233277;1170;114338;-68
2021/05/07 22:27:17;;;;;;;9.27;7.80;;;;;;;4.25;77.48;99631.28;232294;1177;117159;-69
2021/05/07 22:32:21;;;;;;;11.33;8.20;;;;;;;4.25;77.07;99631.28;232041;1177;116253;-71
2021/05/07 22:37:26;;;;;;;11.80;8.78;;;;;;;4.24;77.50;99634.92;232573;1177;115047;-68
2021/05/07 22:42:31;;;;;;;9.40;6.97;;;;;;;4.30;77.49;99633.30;232156;1177;115234;-67
2021/05/07 22:47:35;;;;;;;8.90;7.40;;;;;;;4.26;77.38;99635.55;232693;1179;115066;-66
2021/05/07 22:52:39;;;;;;;9.75;7.60;;;;;;;4.27;77.53;99652.19;233479;1173;115500;-65
2021/05/07 22:57:43;;;;;;;7.75;6.80;;;;;;;4.35;78.04;99652.81;233609;1177;115180;-65
2021/05/07 23:02:46;;;;;;;8.90;6.00;;;;;;;4.35;78.10;99658.09;232382;1177;114917;-66
2021/05/07 23:07:50;;;;;;;10.15;6.35;;;;;;;4.32;78.01;99666.40;232039;1178;115544;-66
2021/05/07 23:12:52;;;;;;;10.53;9.48;;;;;;;4.36;77.81;99664.19;233229;1173;115247;-67
2021/05/07 23:17:55;;;;;;;7.95;5.48;;;;;;;4.38;78.28;99673.54;233213;1177;115063;-64
2021/05/07 23:22:59;;;;;;;6.40;4.93;;;;;;;4.37;77.74;99679.83;233617;1177;114682;-65